createdAt,value
2019-02-25T00:00:55.047Z,102114.67
2019-02-25T00:03:27.837Z,102114.56
2019-02-25T00:06:00.290Z,102114.39
2019-02-25T00:08:33.313Z,102112.26
2019-02-25T00:11:06.448Z,102115.53
2019-02-25T00:13:40.550Z,102118.30
2019-02-25T00:16:15.590Z,102119.30
2019-02-25T00:18:50.590Z,102115.66
2019-02-25T00:21:25.086Z,102116.55
2019-02-25T00:23:57.961Z,102111.14
2019-02-25T00:26:32.198Z,102109.30
2019-02-25T00:29:05.470Z,102115.91
2019-02-25T00:31:38.283Z,102113.43
2019-02-25T00:34:11.438Z,102121.23
2019-02-25T00:36:43.983Z,102121.22
2019-02-25T00:39:19.635Z,102117.94
2019-02-25T00:41:53.039Z,102120.11
2019-02-25T00:44:25.522Z,102121.20
2019-02-25T00:46:58.336Z,102122.32
2019-02-25T00:49:30.918Z,102123.25
2019-02-25T00:52:04.142Z,102121.91
2019-02-25T00:54:37.297Z,102112.44
2019-02-25T00:57:09.824Z,102113.06
2019-02-25T00:59:42.387Z,102110.39
2019-02-25T01:02:15.055Z,102113.88
2019-02-25T01:04:48.117Z,102113.54
2019-02-25T01:07:20.607Z,102112.89
2019-02-25T01:09:53.153Z,102108.79
2019-02-25T01:12:25.730Z,102103.79
2019-02-25T01:14:58.308Z,102097.94
2019-02-25T01:17:31.343Z,102103.48
2019-02-25T01:20:05.096Z,102099.94
2019-02-25T01:22:38.134Z,102099.03
2019-02-25T01:25:11.344Z,102106.80
2019-02-25T01:27:44.532Z,102103.55
2019-02-25T01:30:18.491Z,102104.97
2019-02-25T01:32:51.075Z,102108.00
2019-02-25T01:35:23.699Z,102103.19
2019-02-25T01:37:56.622Z,102106.34
2019-02-25T01:40:29.226Z,102110.34
2019-02-25T01:43:01.690Z,102111.81
2019-02-25T01:45:34.761Z,102112.74
2019-02-25T01:48:08.275Z,102120.39
2019-02-25T01:50:42.276Z,102122.14
2019-02-25T01:53:15.935Z,102116.20
2019-02-25T01:55:48.955Z,102107.42
2019-02-25T01:58:23.320Z,102109.01
2019-02-25T02:00:57.318Z,102111.72
2019-02-25T02:03:29.682Z,102106.99
2019-02-25T02:06:02.907Z,102106.42
2019-02-25T02:08:37.001Z,102105.29
2019-02-25T02:11:09.915Z,102101.94
2019-02-25T02:13:42.394Z,102095.88
2019-02-25T02:16:15.558Z,102089.43
2019-02-25T02:18:48.827Z,102090.41
2019-02-25T02:21:22.234Z,102089.55
2019-02-25T02:23:54.994Z,102088.73
2019-02-25T02:26:27.626Z,102085.30
2019-02-25T02:29:00.178Z,102084.49
2019-02-25T02:33:42.146Z,102070.70
2019-02-25T02:36:14.687Z,102069.23
2019-02-25T02:38:47.351Z,102067.23
2019-02-25T02:41:20.329Z,102069.30
2019-02-25T02:43:53.070Z,102073.61
2019-02-25T02:47:26.718Z,102080.72
2019-02-25T02:50:15.966Z,102085.13
2019-02-25T02:52:48.699Z,102082.64
2019-02-25T02:55:21.821Z,102089.67
2019-02-25T02:57:54.665Z,102084.59
2019-02-25T03:00:27.197Z,102082.59
2019-02-25T03:02:59.997Z,102087.19
2019-02-25T03:05:32.819Z,102086.31
2019-02-25T03:08:05.521Z,102084.09
2019-02-25T03:10:41.452Z,102086.61
2019-02-25T03:13:14.199Z,102082.56
2019-02-25T03:15:48.542Z,102082.77
2019-02-25T03:18:21.382Z,102084.86
2019-02-25T03:20:54.021Z,102085.91
2019-02-25T03:23:26.520Z,102083.11
2019-02-25T03:26:01.272Z,102081.88
2019-02-25T03:28:33.735Z,102083.00
2019-02-25T03:31:06.284Z,102086.72
2019-02-25T03:33:39.024Z,102078.44
2019-02-25T03:36:11.728Z,102073.91
2019-02-25T03:38:44.276Z,102071.95
2019-02-25T03:41:17.503Z,102062.08
2019-02-25T03:43:50.009Z,102063.24
2019-02-25T03:46:22.621Z,102064.31
2019-02-25T03:48:56.578Z,102067.66
2019-02-25T03:51:29.627Z,102068.67
2019-02-25T03:54:02.130Z,102079.12
2019-02-25T03:56:35.011Z,102078.33
2019-02-25T03:59:07.460Z,102075.67
2019-02-25T04:01:40.156Z,102077.59
2019-02-25T04:04:16.418Z,102084.95
2019-02-25T04:06:49.823Z,102080.42
2019-02-25T04:09:22.412Z,102076.16
2019-02-25T04:11:55.551Z,102079.59
2019-02-25T04:14:28.090Z,102074.02
2019-02-25T04:17:00.691Z,102071.64
2019-02-25T04:19:33.523Z,102077.94
2019-02-25T04:22:06.031Z,102070.82
2019-02-25T04:24:38.599Z,102075.13
2019-02-25T04:27:11.409Z,102077.56
2019-02-25T04:29:43.998Z,102077.44
2019-02-25T04:32:16.922Z,102071.88
2019-02-25T04:34:53.473Z,102076.50
2019-02-25T04:37:26.059Z,102077.44
2019-02-25T04:39:58.647Z,102069.97
2019-02-25T04:42:31.588Z,102072.23
2019-02-25T04:45:09.089Z,102070.73
2019-02-25T04:47:41.598Z,102070.86
2019-02-25T04:50:16.601Z,102073.75
2019-02-25T04:52:49.303Z,102068.71
2019-02-25T04:55:21.899Z,102075.31
2019-02-25T04:57:55.639Z,102077.41
2019-02-25T05:00:29.665Z,102074.69
2019-02-25T05:03:02.259Z,102067.97
2019-02-25T05:05:35.670Z,102065.11
2019-02-25T05:08:09.040Z,102066.72
2019-02-25T05:10:43.306Z,102075.34
2019-02-25T05:13:16.222Z,102074.46
2019-02-25T05:15:49.377Z,102071.90
2019-02-25T05:18:22.691Z,102072.88
2019-02-25T05:20:56.130Z,102068.44
2019-02-25T05:23:29.236Z,102068.66
2019-02-25T05:26:01.990Z,102072.88
2019-02-25T05:28:35.718Z,102067.06
2019-02-25T05:31:08.416Z,102065.61
2019-02-25T05:33:41.778Z,102062.34
2019-02-25T05:36:15.410Z,102059.96
2019-02-25T05:38:48.035Z,102058.92
2019-02-25T05:41:20.515Z,102059.17
2019-02-25T05:43:53.693Z,102063.77
2019-02-25T05:46:26.089Z,102066.95
2019-02-25T05:48:58.696Z,102070.90
2019-02-25T05:51:31.446Z,102064.34
2019-02-25T05:54:04.033Z,102059.23
2019-02-25T05:56:37.412Z,102061.13
2019-02-25T05:59:10.219Z,102072.02
2019-02-25T06:01:42.817Z,102068.64
2019-02-25T06:04:16.098Z,102077.64
2019-02-25T06:06:48.982Z,102074.82
2019-02-25T06:09:22.051Z,102075.20
2019-02-25T06:11:54.510Z,102077.11
2019-02-25T06:14:27.433Z,102078.02
2019-02-25T06:17:00.014Z,102075.42
2019-02-25T06:19:32.581Z,102074.09
2019-02-25T06:22:06.742Z,102076.98
2019-02-25T06:24:39.463Z,102079.11
2019-02-25T06:27:12.882Z,102079.20
2019-02-25T06:29:47.866Z,102080.83
2019-02-25T06:32:21.447Z,102084.42
2019-02-25T06:34:53.959Z,102088.35
2019-02-25T06:37:26.383Z,102095.92
2019-02-25T06:39:59.184Z,102100.64
2019-02-25T06:42:31.963Z,102104.32
2019-02-25T06:45:07.057Z,102107.48
2019-02-25T06:47:39.586Z,102105.06
2019-02-25T06:50:15.639Z,102107.16
2019-02-25T06:52:48.849Z,102114.67
2019-02-25T06:55:21.444Z,102112.50
2019-02-25T06:57:54.526Z,102114.65
2019-02-25T07:00:28.785Z,102115.67
2019-02-25T07:03:01.674Z,102109.09
2019-02-25T07:05:42.806Z,102104.45
2019-02-25T07:08:24.278Z,102106.39
2019-02-25T07:11:17.947Z,102104.36
2019-02-25T07:13:59.610Z,102101.12
2019-02-25T07:16:42.771Z,102097.91
2019-02-25T07:19:31.787Z,102093.95
2019-02-25T07:22:26.510Z,102098.06
2019-02-25T07:25:07.880Z,102096.33
2019-02-25T07:28:03.832Z,102091.97
2019-02-25T07:30:55.890Z,102094.98
2019-02-25T07:33:38.479Z,102091.67
2019-02-25T07:36:24.371Z,102088.95
2019-02-25T07:39:18.012Z,102094.71
2019-02-25T07:42:03.900Z,102101.45
2019-02-25T07:44:57.091Z,102101.63
2019-02-25T07:47:51.895Z,102101.30
2019-02-25T07:50:33.860Z,102099.60
2019-02-25T07:53:15.682Z,102099.42
2019-02-25T07:56:02.185Z,102106.68
2019-02-25T07:58:54.114Z,102104.08
2019-02-25T08:01:46.534Z,102104.67
2019-02-25T08:04:27.967Z,102105.81
2019-02-25T08:07:10.933Z,102109.34
2019-02-25T08:10:00.641Z,102115.55
2019-02-25T08:12:45.301Z,102110.73
2019-02-25T08:15:33.910Z,102103.66
2019-02-25T08:18:19.106Z,102109.11
2019-02-25T08:21:10.576Z,102120.37
2019-02-25T08:23:52.366Z,102121.77
2019-02-25T08:26:42.039Z,102121.94
2019-02-25T08:29:34.950Z,102120.69
2019-02-25T08:32:27.808Z,102115.73
2019-02-25T08:35:06.224Z,102127.28
2019-02-25T08:38:07.379Z,102126.84
2019-02-25T08:41:01.595Z,102130.44
2019-02-25T08:43:46.047Z,102129.77
2019-02-25T08:46:28.326Z,102132.34
2019-02-25T08:49:07.839Z,102131.20
2019-02-25T08:51:40.591Z,102126.23
2019-02-25T08:54:15.335Z,102129.24
2019-02-25T08:56:49.982Z,102124.38
2019-02-25T08:59:23.653Z,102118.67
2019-02-25T09:01:56.549Z,102116.56
2019-02-25T09:04:30.623Z,102119.15
2019-02-25T09:07:04.299Z,102126.78
2019-02-25T09:09:38.926Z,102128.09
2019-02-25T09:12:11.565Z,102125.21
2019-02-25T09:14:44.315Z,102134.80
2019-02-25T09:17:16.912Z,102133.79
2019-02-25T09:19:50.352Z,102138.63
2019-02-25T09:22:23.731Z,102142.63
2019-02-25T09:24:57.778Z,102138.59
2019-02-25T09:27:31.301Z,102138.19
2019-02-25T09:30:08.204Z,102133.92
2019-02-25T09:32:41.067Z,102139.27
2019-02-25T09:35:15.881Z,102131.23
2019-02-25T09:37:49.112Z,102129.94
2019-02-25T09:40:24.888Z,102138.48
2019-02-25T09:42:58.232Z,102143.58
2019-02-25T09:45:33.191Z,102139.23
2019-02-25T09:48:05.898Z,102136.86
2019-02-25T09:50:38.363Z,102142.80
2019-02-25T09:53:12.064Z,102134.36
2019-02-25T09:55:44.584Z,102140.38
2019-02-25T09:58:20.271Z,102135.13
2019-02-25T10:00:53.384Z,102135.26
2019-02-25T10:03:27.016Z,102139.95
2019-02-25T10:05:59.990Z,102141.83
2019-02-25T10:08:33.574Z,102140.64
2019-02-25T10:11:07.658Z,102141.17
2019-02-25T10:13:40.424Z,102136.25
2019-02-25T10:16:16.249Z,102138.31
2019-02-25T10:18:48.843Z,102142.92
2019-02-25T10:21:22.027Z,102141.36
2019-02-25T10:23:56.222Z,102137.61
2019-02-25T10:26:28.905Z,102136.33
2019-02-25T10:29:02.109Z,102136.63
2019-02-25T10:31:38.135Z,102134.52
2019-02-25T10:34:13.056Z,102132.16
2019-02-25T10:36:48.219Z,102127.50
2019-02-25T10:39:24.937Z,102125.54
2019-02-25T10:42:01.609Z,102129.27
2019-02-25T10:44:36.206Z,102126.74
2019-02-25T10:47:10.937Z,102131.98
2019-02-25T10:49:47.282Z,102127.83
2019-02-25T10:52:20.258Z,102127.49
2019-02-25T10:54:56.213Z,102123.00
2019-02-25T10:57:31.427Z,102123.79
2019-02-25T11:00:09.611Z,102122.84
2019-02-25T11:02:46.840Z,102117.04
2019-02-25T11:05:23.360Z,102110.57
2019-02-25T11:08:03.257Z,102105.46
2019-02-25T11:10:44.154Z,102106.75
2019-02-25T11:13:25.441Z,102111.05
2019-02-25T11:16:01.094Z,102109.69
2019-02-25T11:18:34.928Z,102107.41
2019-02-25T11:21:22.894Z,102102.58
2019-02-25T11:23:59.001Z,102091.30
2019-02-25T11:26:32.934Z,102081.73
2019-02-25T11:29:08.202Z,102074.06
2019-02-25T11:31:45.290Z,102070.31
2019-02-25T11:34:20.628Z,102068.53
2019-02-25T11:36:55.490Z,102065.70
2019-02-25T11:39:30.754Z,102065.88
2019-02-25T11:42:07.825Z,102063.30
2019-02-25T11:44:46.577Z,102063.77
2019-02-25T11:47:20.681Z,102066.80
2019-02-25T11:49:57.519Z,102057.69
2019-02-25T11:52:30.942Z,102060.37
2019-02-25T11:55:04.150Z,102056.84
2019-02-25T11:57:38.488Z,102051.32
2019-02-25T12:00:20.327Z,102042.05
2019-02-25T12:02:55.188Z,102045.41
2019-02-25T12:05:29.029Z,102035.69
2019-02-25T12:08:07.009Z,102036.81
2019-02-25T12:10:40.917Z,102032.22
2019-02-25T12:13:16.593Z,102039.39
2019-02-25T12:15:51.313Z,102038.40
2019-02-25T12:18:25.076Z,102041.48
2019-02-25T12:21:08.790Z,102036.33
2019-02-25T12:23:44.488Z,102038.30
2019-02-25T12:26:17.860Z,102036.00
2019-02-25T12:28:51.191Z,102031.48
2019-02-25T12:31:25.119Z,102022.91
2019-02-25T12:33:58.811Z,102013.77
2019-02-25T12:36:34.561Z,102010.61
2019-02-25T12:39:09.432Z,102004.52
2019-02-25T12:41:44.846Z,102005.06
2019-02-25T12:44:17.715Z,101998.91
2019-02-25T12:46:51.288Z,101990.11
2019-02-25T12:49:25.046Z,101981.34
2019-02-25T12:51:57.678Z,101977.41
2019-02-25T12:54:31.534Z,101968.73
2019-02-25T12:57:10.367Z,101964.03
2019-02-25T12:59:44.947Z,101954.80
2019-02-25T13:02:20.141Z,101937.80
2019-02-25T13:04:57.455Z,101927.28
2019-02-25T13:07:32.050Z,101927.22
2019-02-25T13:10:42.607Z,101915.09
2019-02-25T13:13:15.043Z,101904.16
2019-02-25T13:15:47.589Z,101896.94
2019-02-25T13:18:20.416Z,101892.73
2019-02-25T13:20:54.126Z,101891.24
2019-02-25T13:23:28.330Z,101884.78
2019-02-25T13:26:07.514Z,101883.98
2019-02-25T13:28:42.060Z,101879.69
2019-02-25T13:31:17.509Z,101871.65
2019-02-25T13:33:50.009Z,101866.63
2019-02-25T13:36:23.154Z,101867.67
2019-02-25T13:38:55.771Z,101863.98
2019-02-25T13:41:28.983Z,101862.90
2019-02-25T13:44:01.531Z,101864.27
2019-02-25T13:46:37.961Z,101866.31
2019-02-25T13:49:14.086Z,101873.44
2019-02-25T13:51:48.943Z,101872.08
2019-02-25T13:54:23.539Z,101871.84
2019-02-25T13:56:59.075Z,101866.35
2019-02-25T13:59:40.504Z,101864.81
2019-02-25T14:02:13.902Z,101857.33
2019-02-25T14:04:47.965Z,101851.39
2019-02-25T14:07:21.192Z,101844.15
2019-02-25T14:10:03.360Z,101849.81
2019-02-25T14:12:36.168Z,101848.18
2019-02-25T14:15:12.848Z,101851.17
2019-02-25T14:18:03.310Z,101857.25
2019-02-25T14:20:38.016Z,101858.27
2019-02-25T14:23:12.720Z,101860.23
2019-02-25T14:25:48.291Z,101860.80
2019-02-25T14:28:21.655Z,101859.28
2019-02-25T14:30:56.307Z,101863.85
2019-02-25T14:33:29.352Z,101862.84
2019-02-25T14:36:02.562Z,101864.36
2019-02-25T14:38:37.104Z,101864.70
2019-02-25T14:41:13.717Z,101867.30
2019-02-25T14:43:54.216Z,101863.55
2019-02-25T14:46:29.188Z,101862.81
2019-02-25T14:49:02.082Z,101865.25
2019-02-25T14:51:35.354Z,101867.63
2019-02-25T14:54:09.850Z,101871.67
2019-02-25T14:56:44.959Z,101875.06
2019-02-25T14:59:20.503Z,101868.75
2019-02-25T15:01:56.866Z,101871.09
2019-02-25T15:04:30.882Z,101879.83
2019-02-25T15:07:06.901Z,101876.32
2019-02-25T15:09:43.180Z,101880.72
2019-02-25T15:12:20.776Z,101887.09
2019-02-25T15:14:55.608Z,101882.38
2019-02-25T15:17:32.003Z,101886.75
2019-02-25T15:20:06.037Z,101886.56
2019-02-25T15:22:43.443Z,101887.81
2019-02-25T15:25:33.300Z,101886.44
2019-02-25T15:28:11.190Z,101888.63
2019-02-25T15:30:46.556Z,101889.59
2019-02-25T15:33:20.180Z,101889.97
2019-02-25T15:35:57.688Z,101884.55
2019-02-25T15:38:33.134Z,101885.10
2019-02-25T15:41:09.622Z,101884.47
2019-02-25T15:43:44.718Z,101879.64
2019-02-25T15:46:19.604Z,101881.97
2019-02-25T15:48:57.443Z,101885.23
2019-02-25T15:51:39.093Z,101883.70
2019-02-25T15:54:14.760Z,101882.20
2019-02-25T15:56:47.749Z,101885.11
2019-02-25T15:59:21.398Z,101886.14
2019-02-25T16:01:54.831Z,101890.52
2019-02-25T16:04:31.598Z,101891.48
2019-02-25T16:07:08.830Z,101890.38
2019-02-25T16:09:43.213Z,101894.91
2019-02-25T16:12:16.146Z,101900.95
2019-02-25T16:14:51.529Z,101903.86
2019-02-25T16:17:26.908Z,101903.72
2019-02-25T16:20:01.921Z,101905.96
2019-02-25T16:22:38.582Z,101904.70
2019-02-25T16:25:16.384Z,101903.08
2019-02-25T16:27:52.636Z,101904.54
2019-02-25T16:30:30.870Z,101909.34
2019-02-25T16:33:07.852Z,101907.30
2019-02-25T16:35:51.779Z,101910.54
2019-02-25T16:38:27.272Z,101908.72
2019-02-25T16:41:06.386Z,101904.37
2019-02-25T16:43:41.220Z,101905.23
2019-02-25T16:46:18.450Z,101908.02
2019-02-25T16:48:55.064Z,101921.23
2019-02-25T16:51:35.163Z,101921.04
2019-02-25T16:54:13.136Z,101925.13
2019-02-25T16:56:48.227Z,101926.75
2019-02-25T16:59:26.449Z,101920.98
2019-02-25T17:02:00.110Z,101929.71
2019-02-25T17:04:34.474Z,101931.78
2019-02-25T17:07:07.693Z,101937.06
2019-02-25T17:09:42.403Z,101938.11
2019-02-25T17:12:17.448Z,101939.77
2019-02-25T17:14:53.248Z,101948.87
2019-02-25T17:17:27.724Z,101949.59
2019-02-25T17:20:12.324Z,101950.62
2019-02-25T17:22:45.818Z,101949.32
2019-02-25T17:25:20.359Z,101944.77
2019-02-25T17:27:54.355Z,101949.13
2019-02-25T17:30:32.066Z,101957.02
2019-02-25T17:33:10.086Z,101954.14
2019-02-25T17:35:47.578Z,101961.56
2019-02-25T17:38:24.218Z,101960.45
2019-02-25T17:41:01.257Z,101960.30
2019-02-25T17:43:39.114Z,101959.66
2019-02-25T17:46:17.619Z,101966.59
2019-02-25T17:48:50.309Z,101971.96
2019-02-25T17:51:24.816Z,101964.63
2019-02-25T17:53:59.307Z,101966.83
2019-02-25T17:56:33.784Z,101961.06
2019-02-25T17:59:09.717Z,101965.64
2019-02-25T18:01:46.102Z,101967.97
2019-02-25T18:04:38.987Z,101963.60
2019-02-25T18:07:15.164Z,101960.95
2019-02-25T18:09:49.969Z,101964.20
2019-02-25T18:12:25.271Z,101964.09
2019-02-25T18:15:00.927Z,101965.00
2019-02-25T18:17:42.631Z,101965.76
2019-02-25T18:20:17.241Z,101963.72
2019-02-25T18:22:51.807Z,101964.63
2019-02-25T18:25:26.795Z,101959.32
2019-02-25T18:28:01.543Z,101958.84
2019-02-25T18:30:37.743Z,101958.22
2019-02-25T18:33:13.861Z,101951.17
2019-02-25T18:35:47.997Z,101948.08
2019-02-25T18:38:23.249Z,101946.34
2019-02-25T18:41:00.387Z,101953.64
2019-02-25T18:43:34.772Z,101951.53
2019-02-25T18:46:33.311Z,101950.55
2019-02-25T18:49:09.480Z,101952.50
2019-02-25T18:51:48.597Z,101947.27
2019-02-25T18:54:25.464Z,101942.23
2019-02-25T18:56:59.594Z,101942.63
2019-02-25T18:59:36.223Z,101946.88
2019-02-25T19:02:12.812Z,101948.42
2019-02-25T19:04:49.595Z,101944.30
2019-02-25T19:07:25.119Z,101948.27
2019-02-25T19:09:59.853Z,101946.70
2019-02-25T19:12:33.392Z,101952.45
2019-02-25T19:15:13.778Z,101950.91
2019-02-25T19:17:52.140Z,101950.50
2019-02-25T19:20:27.132Z,101949.48
2019-02-25T19:23:02.771Z,101949.90
2019-02-25T19:25:38.723Z,101947.31
2019-02-25T19:28:16.606Z,101952.26
2019-02-25T19:30:51.968Z,101940.09
2019-02-25T19:33:26.129Z,101939.55
2019-02-25T19:36:00.592Z,101944.81
2019-02-25T19:38:43.611Z,101948.56
2019-02-25T19:41:22.429Z,101948.13
2019-02-25T19:44:03.342Z,101949.96
2019-02-25T19:46:38.159Z,101949.67
2019-02-25T19:49:12.036Z,101951.67
2019-02-25T19:51:50.715Z,101948.81
2019-02-25T19:54:26.741Z,101948.25
2019-02-25T19:57:01.330Z,101948.73
2019-02-25T19:59:35.615Z,101947.79
2019-02-25T20:02:08.697Z,101945.20
2019-02-25T20:04:45.394Z,101945.54
2019-02-25T20:07:27.970Z,101945.52
2019-02-25T20:10:03.192Z,101938.58
2019-02-25T20:12:39.245Z,101937.61
2019-02-25T20:15:25.075Z,101937.47
2019-02-25T20:17:59.949Z,101934.05
2019-02-25T20:20:47.214Z,101935.12
2019-02-25T20:23:22.803Z,101932.77
2019-02-25T20:25:57.885Z,101928.80
2019-02-25T20:28:32.002Z,101927.73
2019-02-25T20:31:10.105Z,101924.60
2019-02-25T20:33:45.298Z,101928.83
2019-02-25T20:36:24.079Z,101930.49
2019-02-25T20:39:02.365Z,101929.60
2019-02-25T20:41:35.028Z,101939.16
2019-02-25T20:44:10.181Z,101931.64
2019-02-25T20:46:48.659Z,101930.23
2019-02-25T20:49:26.387Z,101923.48
2019-02-25T20:52:04.225Z,101924.23
2019-02-25T20:54:40.909Z,101921.27
2019-02-25T20:57:18.642Z,101919.71
2019-02-25T20:59:55.346Z,101911.80
2019-02-25T21:02:31.350Z,101913.48
2019-02-25T21:05:04.798Z,101907.18
2019-02-25T21:07:38.163Z,101907.55
2019-02-25T21:10:13.829Z,101904.11
2019-02-25T21:12:46.776Z,101901.14
2019-02-25T21:15:19.613Z,101892.16
2019-02-25T21:17:54.983Z,101889.23
2019-02-25T21:20:31.464Z,101889.68
2019-02-25T21:23:05.954Z,101889.23
2019-02-25T21:25:44.086Z,101888.67
2019-02-25T21:28:17.855Z,101883.14
2019-02-25T21:30:57.607Z,101888.90
2019-02-25T21:33:31.301Z,101890.64
2019-02-25T21:36:05.772Z,101889.20
2019-02-25T21:38:39.991Z,101883.23
2019-02-25T21:41:13.798Z,101879.68
2019-02-25T21:43:51.758Z,101879.03
2019-02-25T21:46:29.097Z,101885.15
2019-02-25T21:49:06.601Z,101884.75
2019-02-25T21:51:47.765Z,101878.09
2019-02-25T21:54:22.158Z,101884.19
2019-02-25T21:56:58.585Z,101877.22
2019-02-25T21:59:34.961Z,101876.68
2019-02-25T22:02:09.351Z,101877.20
2019-02-25T22:04:43.056Z,101874.13
2019-02-25T22:07:24.172Z,101877.28
2019-02-25T22:09:59.336Z,101880.45
2019-02-25T22:12:33.198Z,101878.73
2019-02-25T22:15:10.832Z,101875.67
2019-02-25T22:17:48.319Z,101879.11
2019-02-25T22:20:25.315Z,101879.78
2019-02-25T22:22:59.133Z,101886.66
2019-02-25T22:25:34.210Z,101886.68
2019-02-25T22:28:09.971Z,101887.14
2019-02-25T22:30:45.259Z,101892.37
2019-02-25T22:33:27.540Z,101891.84
2019-02-25T22:36:01.168Z,101893.64
2019-02-25T22:38:33.768Z,101894.82
2019-02-25T22:41:06.482Z,101897.55
2019-02-25T22:43:43.236Z,101899.66
2019-02-25T22:46:16.517Z,101898.25
2019-02-25T22:48:50.467Z,101900.67
2019-02-25T22:51:25.874Z,101902.87
2019-02-25T22:54:03.677Z,101901.33
2019-02-25T22:56:39.346Z,101897.48
2019-02-25T22:59:11.983Z,101897.69
2019-02-25T23:01:46.590Z,101904.83
2019-02-25T23:04:19.680Z,101914.63
2019-02-25T23:06:56.709Z,101907.02
2019-02-25T23:09:30.451Z,101912.02
2019-02-25T23:12:04.338Z,101914.30
2019-02-25T23:14:42.498Z,101909.19
2019-02-25T23:17:18.394Z,101909.83
2019-02-25T23:19:51.141Z,101906.44
2019-02-25T23:22:24.178Z,101903.11
2019-02-25T23:24:58.343Z,101906.59
2019-02-25T23:27:32.238Z,101904.34
2019-02-25T23:30:09.089Z,101905.56
2019-02-25T23:32:43.116Z,101905.27
2019-02-25T23:35:16.420Z,101903.12
2019-02-25T23:37:51.510Z,101899.61
2019-02-25T23:40:26.141Z,101893.30
2019-02-25T23:42:58.732Z,101892.64
2019-02-25T23:45:31.107Z,101887.14
2019-02-25T23:48:06.365Z,101884.20
2019-02-25T23:50:41.514Z,101883.23
2019-02-25T23:53:14.346Z,101880.63
2019-02-25T23:55:49.529Z,101878.31
2019-02-25T23:58:24.094Z,101882.58
